Latest Weather Observations for Moss Vale

IDN60801

Issued at 5:33 am EST Wednesday 27 July 2016 (issued every 30 minutes, with the page automatically refreshed every 10 minutes)

About weather observations | Map of weather stations | Latest weather observations for NSW | Other Formats
Station Details ID: 068239 Name: MOSS VALE AWS Lat: -34.53 Lon: 150.42 Height: 678.4 m
Data from the previous 72 hours. | See also: Recent months at Moss Vale
Date/Time
EST
Temp
°C
App
Temp
°C
Dew
Point
°C
Rel
Hum
%
Delta-T
°C
Wind Press
QNH
hPa
Press
MSL
hPa
Rain since
9am
mm
Dir  Spd
km/h
Gust
km/h
Spd
kts
Gust
kts
27/05:30am 5.7 0.3 2.7 81 1.3 WNW 20 28 11 15 1010.7 1011.4 0.0
27/05:00am 5.3 -0.1 2.3 81 1.3 W 20 32 11 17 1010.8 1011.5 0.0
27/04:30am 5.3 -0.5 2.1 80 1.3 WNW 22 33 12 18 1010.8 1011.5 0.0
27/04:00am 5.7 -2.0 2.2 78 1.5 WNW 32 44 17 24 1010.7 1011.4 0.0
27/03:57am 5.5 -1.8 2.3 80 1.4 WNW 30 43 16 23 1010.7 1011.4 0.0
27/03:44am 5.4 -1.4 2.9 84 1.1 NNW 28 39 15 21 1011.1 1011.8 0.0
27/03:30am 5.1 -0.4 1.6 78 1.5 W 20 26 11 14 1011.0 1011.7 0.0
27/03:00am 5.0 0.7 1.3 77 1.5 WNW 13 19 7 10 1011.3 1012.0 0.0
27/02:30am 4.9 1.0 1.4 78 1.4 SW 11 15 6 8 1011.8 1012.4 0.0
27/02:00am 5.2 0.9 1.1 75 1.7 WNW 13 19 7 10 1012.1 1012.8 0.0
27/01:30am 6.0 0.4 1.5 73 1.9 WNW 20 32 11 17 1012.1 1012.8 0.0
27/01:00am 6.2 0.3 1.7 73 1.9 W 22 33 12 18 1012.3 1013.0 0.0
27/12:30am 6.4 0.5 1.5 71 2.1 W 22 35 12 19 1012.6 1013.3 0.0
27/12:00am 6.5 -1.0 1.2 69 2.2 W 30 52 16 28 1012.6 1013.3 0.0
 
Date/Time
EST
Temp
°C
App
Temp
°C
Dew
Point
°C
Rel
Hum
%
Delta-T
°C
Wind Press
QNH
hPa
Press
MSL
hPa
Rain since
9am
mm
Dir  Spd
km/h
Gust
km/h
Spd
kts
Gust
kts
26/11:45pm 6.6 -0.5 1.3 69 2.2 W 28 48 15 26 1012.5 1013.2 0.0
26/11:30pm 6.5 -1.0 1.2 69 2.2 WNW 30 43 16 23 1012.7 1013.4 0.0
26/11:01pm 6.8 -1.0 1.5 69 2.2 WNW 32 54 17 29 1012.6 1013.3 0.0
26/11:00pm 6.7 -0.8 1.4 69 2.2 WNW 30 41 16 22 1012.7 1013.4 0.0
26/10:30pm 6.8 -1.1 1.3 68 2.3 WNW 32 52 17 28 1012.8 1013.5 0.0
26/10:28pm 6.7 -0.8 1.4 69 2.2 WNW 30 50 16 27 1012.8 1013.5 0.0
26/10:00pm 6.5 -0.3 0.8 67 2.4 NW 26 39 14 21 1013.2 1013.8 0.0
26/09:30pm 6.5 0.4 0.6 66 2.4 NNW 22 33 12 18 1013.4 1014.1 0.0
26/09:00pm 6.8 1.1 0.7 65 2.5 NNW 20 37 11 20 1013.3 1014.0 0.0
26/08:30pm 7.0 0.8 0.0 61 2.8 NW 22 32 12 17 1013.5 1014.2 0.0
26/08:00pm 7.2 0.7 0.2 61 2.9 WNW 24 43 13 23 1013.6 1014.3 0.0
26/07:30pm 7.2 0.4 0.9 64 2.6 NW 26 41 14 22 1013.9 1014.6 0.0
26/07:00pm 7.3 1.2 0.5 62 2.8 WNW 22 33 12 18 1013.6 1014.3 0.0
26/06:48pm 7.5 0.3 0.5 61 2.9 WNW 28 46 15 25 1013.5 1014.2 0.0
26/06:30pm 7.3 2.7 1.4 66 2.5 WNW 15 30 8 16 1013.5 1014.2 0.0
26/06:00pm 7.1 2.0 1.0 65 2.5 WNW 17 24 9 13 1013.4 1014.1 0.0
26/05:30pm 7.3 1.8 0.5 62 2.8 WNW 19 28 10 15 1013.0 1013.7 0.0
26/05:00pm 7.7 1.5 -0.3 57 3.3 WNW 22 35 12 19 1013.0 1013.7 0.0
26/04:30pm 8.5 2.7 0.0 55 3.5 NW 20 28 11 15 1012.8 1013.5 0.0
26/04:00pm 9.2 2.6 -0.1 52 3.9 NNW 24 32 13 17 1012.8 1013.5 0.0
26/03:30pm 9.4 0.9 -1.6 46 4.4 NW 33 46 18 25 1012.8 1013.5 0.0
26/03:08pm 9.6 0.7 -1.7 45 4.5 NW 35 54 19 29 1012.9 1013.6 0.0
26/03:00pm 9.4 0.5 -2.2 44 4.6 WNW 35 54 19 29 1012.7 1013.4 0.0
26/02:40pm 9.9 1.6 -0.6 48 4.3 W 33 52 18 28 1012.9 1013.6 0.0
26/02:30pm 9.6 1.3 -1.7 45 4.5 WNW 32 48 17 26 1012.8 1013.5 0.0
26/02:00pm 9.8 0.7 -0.4 49 4.2 WNW 37 52 20 28 1012.6 1013.3 0.0
26/01:54pm 9.6 0.8 -1.4 46 4.4 WNW 35 48 19 26 1012.5 1013.2 0.0
26/01:50pm 9.8 1.0 -1.0 47 4.4 WNW 35 48 19 26 1012.7 1013.4 0.0
26/01:40pm 9.7 0.9 -1.3 46 4.5 NW 35 46 19 25 1012.7 1013.4 0.0
26/01:30pm 9.5 1.3 -0.9 48 4.2 NW 32 46 17 25 1012.8 1013.5 0.0
26/01:14pm 9.5 1.0 -1.5 46 4.4 NW 33 50 18 27 1012.8 1013.5 0.0
26/01:12pm 9.5 1.3 -1.2 47 4.3 NW 32 50 17 27 1012.7 1013.4 0.0
26/01:10pm 9.7 1.8 -1.6 45 4.6 WNW 30 50 16 27 1012.8 1013.5 0.0
26/01:00pm 9.2 0.4 -1.5 47 4.3 NW 35 46 19 25 1012.8 1013.5 0.0
26/12:44pm 9.2 1.0 -1.2 48 4.2 NNW 32 50 17 27 1012.8 1013.5 0.0
26/12:30pm 9.4 1.7 0.1 52 3.9 NW 30 39 16 21 1013.4 1014.1 0.0
26/12:21pm 9.2 1.8 -0.4 51 4.0 NW 28 46 15 25 1013.6 1014.3 0.0
26/12:09pm 9.0 0.6 -0.9 50 4.0 NW 33 46 18 25 1013.7 1014.4 0.0
26/12:00pm 9.2 1.8 -0.4 51 4.0 NNW 28 44 15 24 1013.8 1014.5 0.0
26/11:41am 9.1 1.0 1.3 58 3.3 NNW 33 44 18 24 1014.1 1014.8 0.0
26/11:35am 8.5 0.2 0.0 55 3.5 NW 33 46 18 25 1014.1 1014.8 0.0
26/11:30am 8.3 0.0 -0.4 54 3.6 NW 33 44 18 24 1014.2 1014.9 0.0
26/11:03am 8.4 -1.1 -0.6 53 3.7 NNW 39 57 21 31 1013.8 1014.5 0.0
26/11:00am 8.5 -0.9 0.2 56 3.4 NNW 39 59 21 32 1014.0 1014.7 0.0
26/10:55am 8.2 -2.1 0.0 56 3.4 NNW 44 63 24 34 1013.7 1014.4 0.0
26/10:31am 8.3 -1.6 -0.7 53 3.6 NW 41 59 22 32 1013.7 1014.4 0.0
26/10:30am 8.4 -1.1 -0.4 54 3.6 NW 39 56 21 30 1013.9 1014.6 0.0
26/10:26am 8.3 -1.5 -0.4 54 3.6 NW 41 59 22 32 1013.9 1014.6 0.0
26/10:23am 8.4 -1.6 0.9 59 3.2 NW 43 59 23 32 1014.0 1014.7 0.0
26/10:16am 8.3 -0.3 0.5 58 3.3 NNW 35 56 19 30 1014.0 1014.7 0.0
26/10:15am 8.3 -0.2 0.8 59 3.2 NNW 35 56 19 30 1014.0 1014.7 0.0
26/10:00am 7.9 -0.9 1.1 62 2.9 NNW 37 56 20 30 1014.2 1014.9 0.0
26/09:57am 8.1 -0.7 1.3 62 2.9 NW 37 54 20 29 1014.0 1014.7 0.0
26/09:56am 8.2 -0.5 1.8 64 2.8 NW 37 54 20 29 1014.1 1014.8 0.0
26/09:48am 7.8 -1.4 1.2 63 2.8 NW 39 54 21 29 1013.8 1014.5 0.0
26/09:46am 7.9 -0.5 1.5 64 2.7 NW 35 54 19 29 1013.9 1014.6 0.0
26/09:30am 7.5 -2.4 1.4 65 2.6 NNW 43 63 23 34 1013.6 1014.3 0.0
26/09:15am 7.5 -1.3 1.4 65 2.6 WNW 37 76 20 41 1012.8 1013.5 0.0
26/09:11am 7.7 0.0 2.2 68 2.4 NW 32 52 17 28 1013.2 1013.8 0.0
26/09:08am 7.6 -0.3 2.1 68 2.4 NW 33 46 18 25 1013.0 1013.7 0.0
26/09:01am 7.5 -1.1 2.4 70 2.2 NNW 37 56 20 30 1012.9 1013.6 0.0
26/09:00am 7.5 -1.5 2.4 70 2.2 NNW 39 56 21 30 1012.9 1013.6 0.0
26/08:30am 6.8 -2.2 2.5 74 1.9 NNW 39 57 21 31 1012.4 1013.1 0.0
26/08:00am 6.5 -4.2 2.4 75 1.8 NNW 48 74 26 40 1011.9 1012.5 0.0
26/07:34am 6.1 -3.7 2.4 77 1.6 NNW 43 59 23 32 1011.9 1012.5 0.0
26/07:30am 6.1 -3.9 2.4 77 1.6 NNW 44 63 24 34 1011.9 1012.5 0.0
26/07:27am 6.2 -3.7 2.5 77 1.6 NW 44 63 24 34 1011.9 1012.5 0.0
26/07:25am 6.1 -3.6 2.6 78 1.5 NW 43 63 23 34 1011.9 1012.5 0.0
26/07:11am 6.0 -2.6 2.5 78 1.5 NW 37 56 20 30 1011.6 1012.2 0.0
26/07:05am 6.0 -3.4 2.5 78 1.5 NW 41 63 22 34 1011.6 1012.2 0.0
26/07:00am 6.1 -4.6 2.4 77 1.6 NNW 48 67 26 36 1011.3 1012.0 0.0
26/06:57am 6.1 -4.2 2.6 78 1.5 NW 46 67 25 36 1011.2 1011.9 0.0
26/06:52am 6.2 -3.7 2.7 78 1.5 NNW 44 63 24 34 1010.9 1011.6 0.0
26/06:49am 6.1 -3.8 2.6 78 1.5 NNW 44 65 24 35 1011.0 1011.7 0.0
26/06:30am 6.3 -3.6 2.6 77 1.6 NNW 44 65 24 35 1010.7 1011.4 0.0
26/06:00am 6.5 -3.8 2.8 77 1.6 NNW 46 70 25 38 1010.0 1010.6 0.0
26/05:35am 6.6 -4.5 2.7 76 1.7 NNW 50 87 27 47 1009.5 1010.2 0.0
26/05:32am 6.5 -4.2 2.6 76 1.7 NNW 48 67 26 36 1009.8 1010.5 0.0
26/05:30am 6.6 -4.5 2.7 76 1.7 NNW 50 67 27 36 1009.7 1010.4 0.0
26/05:06am 6.7 -5.2 2.4 74 1.8 NNW 54 91 29 49 1009.5 1010.2 0.0
26/05:00am 6.7 -5.1 2.6 75 1.8 NNW 54 72 29 39 1009.5 1010.2 0.0
26/04:30am 6.8 -4.7 2.3 73 1.9 NW 52 72 28 39 1008.8 1009.4 0.0
26/04:00am 6.8 -5.7 1.9 71 2.1 NW 57 83 31 45 1008.8 1009.4 0.0
26/03:30am 6.8 -4.0 1.7 70 2.2 NW 48 70 26 38 1008.9 1009.5 0.0
26/03:00am 6.7 -3.8 1.6 70 2.2 NW 46 74 25 40 1009.3 1009.9 0.0
26/02:30am 6.8 -4.1 1.3 68 2.3 NW 48 74 26 40 1009.1 1009.7 0.0
26/02:00am 6.7 -3.3 0.8 66 2.4 NW 43 63 23 34 1009.2 1009.8 0.0
26/01:32am 6.5 -4.5 0.8 67 2.4 WNW 48 70 26 38 1009.4 1010.0 0.0
26/01:30am 6.7 -4.7 0.8 66 2.4 WNW 50 76 27 41 1009.2 1009.8 0.0
26/01:29am 6.7 -5.0 0.8 66 2.4 WNW 52 85 28 46 1009.1 1009.7 0.0
26/01:00am 6.8 -5.3 0.9 66 2.5 NW 54 83 29 45 1009.3 1009.9 0.0
26/12:30am 6.7 -5.0 1.0 67 2.4 NW 52 80 28 43 1009.3 1009.9 0.0
26/12:24am 6.6 -5.5 1.1 68 2.3 NW 54 76 29 41 1009.3 1009.9 0.0
26/12:23am 6.7 -5.4 1.2 68 2.3 NW 54 83 29 45 1009.1 1009.7 0.0
26/12:00am 6.6 -6.1 0.9 67 2.4 WNW 57 89 31 48 1009.1 1009.7 0.0
 
Date/Time
EST
Temp
°C
App
Temp
°C
Dew
Point
°C
Rel
Hum
%
Delta-T
°C
Wind Press
QNH
hPa
Press
MSL
hPa
Rain since
9am
mm
Dir  Spd
km/h
Gust
km/h
Spd
kts
Gust
kts
25/11:30pm 6.3 -6.7 1.0 69 2.2 NW 59 87 32 47 1009.1 1009.7 0.0
25/11:00pm 6.0 -6.1 1.2 71 2.0 NW 54 80 29 43 1009.8 1010.5 0.0
25/10:53pm 6.1 -6.0 1.2 71 2.0 NW 54 80 29 43 1009.6 1010.3 0.0
25/10:30pm 5.9 -5.8 1.2 72 1.9 WNW 52 85 28 46 1010.3 1010.9 0.0
25/10:18pm 6.0 -6.0 1.3 72 2.0 WNW 54 80 29 43 1010.0 1010.6 0.0
25/10:17pm 6.0 -6.0 1.3 72 2.0 WNW 54 80 29 43 1010.3 1010.9 0.0
25/10:16pm 6.0 -5.7 1.3 72 2.0 WNW 52 80 28 43 1010.2 1010.8 0.0
25/10:15pm 6.1 -5.5 1.4 72 2.0 WNW 52 80 28 43 1010.0 1010.6 0.0
25/10:00pm 5.9 -4.0 1.4 73 1.9 W 43 78 23 42 1010.4 1011.0 0.0
25/09:30pm 6.0 -4.5 1.7 74 1.8 WNW 46 74 25 40 1010.7 1011.4 0.0
25/09:10pm 6.0 -4.8 1.7 74 1.8 WNW 48 65 26 35 1010.9 1011.6 0.0
25/09:08pm 6.0 -4.8 1.7 74 1.8 WNW 48 65 26 35 1010.9 1011.6 0.0
25/09:00pm 5.9 -4.5 1.8 75 1.7 WNW 46 76 25 41 1010.9 1011.6 0.0
25/08:48pm 5.8 -3.7 1.7 75 1.7 WNW 41 74 22 40 1010.9 1011.6 0.0
25/08:40pm 5.7 -3.8 1.8 76 1.6 WNW 41 59 22 32 1011.1 1011.8 0.0
25/08:39pm 5.8 -3.7 1.9 76 1.6 WNW 41 59 22 32 1010.9 1011.6 0.0
25/08:30pm 5.8 -3.7 1.9 76 1.6 WNW 41 59 22 32 1011.2 1011.9 0.0
25/08:00pm 5.8 -2.5 1.9 76 1.6 WNW 35 54 19 29 1011.3 1012.0 0.0
25/07:30pm 5.7 -1.3 1.8 76 1.6 WNW 28 48 15 26 1011.2 1011.9 0.0
25/07:15pm 5.8 -1.2 1.9 76 1.6 WNW 28 50 15 27 1011.2 1011.9 0.0
25/07:00pm 5.7 -0.9 1.8 76 1.6 WNW 26 48 14 26 1011.3 1012.0 0.0
25/06:51pm 6.0 -1.0 1.7 74 1.8 WNW 28 48 15 26 1011.1 1011.8 0.0
25/06:30pm 6.1 -0.2 1.8 74 1.8 WNW 24 48 13 26 1011.3 1012.0 0.0
25/06:00pm 6.3 -1.7 1.8 73 1.9 W 33 52 18 28 1011.0 1011.7 0.0
25/05:33pm 6.5 -2.6 2.0 73 1.9 W 39 57 21 31 1010.9 1011.6 0.0
25/05:30pm 6.6 -2.9 1.9 72 2.0 W 41 57 22 31 1010.8 1011.5 0.0
25/05:15pm 6.7 -0.3 2.0 72 2.0 W 28 50 15 27 1010.9 1011.6 0.0
25/05:00pm 7.0 0.0 2.1 71 2.1 W 28 39 15 21 1011.1 1011.8 0.0
25/04:35pm 7.2 -1.5 1.7 68 2.3 WNW 37 56 20 30 1011.1 1011.8 0.0
25/04:30pm 7.3 -1.5 1.6 67 2.4 WNW 37 56 20 30 1010.9 1011.6 0.0
25/04:00pm 7.7 -1.1 1.1 63 2.8 WNW 37 57 20 31 1010.8 1011.5 0.0
25/03:59pm 7.9 -0.9 1.5 64 2.7 WNW 37 54 20 29 1010.9 1011.6 0.0
25/03:56pm 8.0 -0.8 1.6 64 2.7 WNW 37 54 20 29 1011.1 1011.8 0.0
25/03:54pm 7.9 -0.9 1.5 64 2.7 WNW 37 54 20 29 1010.9 1011.6 0.0
25/03:53pm 7.8 -1.1 1.0 62 2.9 WNW 37 54 20 29 1010.8 1011.5 0.0
25/03:39pm 7.9 -1.3 1.5 64 2.7 W 39 59 21 32 1010.8 1011.5 0.0
25/03:37pm 7.8 -1.4 1.0 62 2.9 W 39 59 21 32 1010.6 1011.2 0.0
25/03:30pm 8.0 -1.6 1.2 62 2.9 W 41 63 22 34 1010.7 1011.4 0.0
25/03:04pm 8.3 -1.3 1.2 61 3.0 W 41 59 22 32 1010.9 1011.6 0.0
25/03:00pm 8.3 -1.2 1.7 63 2.8 W 41 54 22 29 1010.8 1011.5 0.0
25/02:44pm 8.8 0.7 1.2 59 3.2 WNW 33 57 18 31 1010.9 1011.6 0.0
25/02:32pm 8.6 -0.6 1.5 61 3.0 NW 39 61 21 33 1011.0 1011.7 0.0
25/02:30pm 8.6 -0.9 1.5 61 3.0 NW 41 61 22 33 1010.9 1011.6 0.0
25/02:28pm 8.4 -1.2 1.3 61 3.0 NW 41 61 22 33 1010.8 1011.5 0.0
25/02:27pm 8.4 -1.1 1.6 62 2.9 NW 41 59 22 32 1010.9 1011.6 0.0
25/02:25pm 8.3 -1.6 1.5 62 2.9 NW 43 61 23 33 1010.9 1011.6 0.0
25/02:19pm 8.3 -1.7 1.0 60 3.1 NW 43 65 23 35 1010.9 1011.6 0.0
25/02:12pm 8.3 -1.3 1.2 61 3.0 WNW 41 65 22 35 1010.8 1011.5 0.0
25/02:11pm 8.4 -0.8 1.3 61 3.0 WNW 39 61 21 33 1010.8 1011.5 0.0
25/02:03pm 8.4 -1.2 1.1 60 3.1 NW 41 61 22 33 1010.8 1011.5 0.0
25/02:00pm 8.3 -1.3 1.2 61 3.0 NW 41 57 22 31 1010.7 1011.4 0.0
25/01:52pm 8.1 -2.0 1.5 63 2.8 NW 44 63 24 34 1011.0 1011.7 0.0
25/01:38pm 8.0 -2.0 1.2 62 2.9 WNW 43 59 23 32 1010.8 1011.5 0.0
25/01:35pm 8.4 -1.1 1.6 62 2.9 WNW 41 59 22 32 1010.9 1011.6 0.0
25/01:34pm 8.8 -0.7 1.9 62 3.0 WNW 41 56 22 30 1011.1 1011.8 0.0
25/01:30pm 8.1 -1.9 1.3 62 2.9 WNW 43 57 23 31 1011.1 1011.8 0.0
25/01:29pm 8.0 -2.2 1.2 62 2.9 WNW 44 57 24 31 1011.0 1011.7 0.0
25/01:08pm 8.7 0.7 1.6 61 3.1 W 33 54 18 29 1011.1 1011.8 0.0
25/01:00pm 8.8 0.1 1.7 61 3.1 W 37 56 20 30 1011.2 1011.9 0.0
25/12:53pm 8.6 -0.9 2.0 63 2.9 WNW 41 59 22 32 1011.3 1012.0 0.0
25/12:52pm 8.4 -0.7 1.6 62 2.9 WNW 39 59 21 32 1011.2 1011.9 0.0
25/12:31pm 8.0 -1.2 1.4 63 2.8 WNW 39 59 21 32 1011.2 1011.9 0.0
25/12:30pm 8.1 -1.1 1.5 63 2.8 NW 39 52 21 28 1011.3 1012.0 0.0
25/12:00pm 7.7 -3.2 1.1 63 2.8 NW 48 70 26 38 1011.2 1011.9 0.0
25/11:57am 7.8 -3.5 1.0 62 2.9 NW 50 70 27 38 1011.1 1011.8 0.0
25/11:55am 7.9 -2.6 1.3 63 2.8 WNW 46 70 25 38 1011.3 1012.0 0.0
25/11:51am 7.7 -2.3 0.7 61 2.9 WNW 43 70 23 38 1011.4 1012.1 0.0
25/11:48am 8.3 -0.5 1.2 61 3.0 WNW 37 63 20 34 1011.4 1012.1 0.0
25/11:47am 8.5 0.1 1.6 62 3.0 NW 35 52 19 28 1011.6 1012.2 0.0
25/11:42am 8.3 -0.1 1.5 62 2.9 WNW 35 56 19 30 1011.7 1012.3 0.0
25/11:35am 8.1 -0.2 1.9 65 2.7 WNW 35 56 19 30 1011.8 1012.4 0.0
25/11:33am 7.9 -0.2 1.3 63 2.8 WNW 33 54 18 29 1011.6 1012.2 0.0
25/11:30am 8.1 0.3 1.9 65 2.7 WNW 32 54 17 29 1011.8 1012.4 0.0
25/11:28am 8.0 0.0 1.8 65 2.7 WNW 33 56 18 30 1011.7 1012.3 0.0
25/11:21am 7.5 -1.3 1.6 66 2.5 WNW 37 57 20 31 1011.7 1012.3 0.0
25/11:00am 7.2 -2.9 1.3 66 2.5 WNW 44 67 24 36 1011.8 1012.4 0.0
25/10:49am 7.4 -0.7 1.3 65 2.6 WNW 33 54 18 29 1011.8 1012.4 0.0
25/10:46am 7.7 -0.7 1.3 64 2.7 WNW 35 54 19 29 1011.4 1012.1 0.0
25/10:45am 7.9 -0.5 1.7 65 2.7 WNW 35 54 19 29 1011.7 1012.3 0.0
25/10:41am 7.4 -1.7 1.7 67 2.4 W 39 65 21 35 1011.6 1012.2 0.0
25/10:33am 7.1 -1.0 1.2 66 2.5 NW 33 65 18 35 1011.6 1012.2 0.0
25/10:32am 7.1 -1.0 0.8 64 2.6 NW 33 65 18 35 1011.4 1012.1 0.0
25/10:30am 7.8 -0.1 2.3 68 2.4 NW 33 56 18 30 1011.7 1012.3 0.0
25/10:18am 6.7 -2.8 1.6 70 2.1 NW 41 63 22 34 1011.3 1012.0 0.0
25/10:13am 6.6 -2.2 1.3 69 2.2 WNW 37 57 20 31 1011.1 1011.8 0.0
25/10:12am 6.7 -1.6 2.0 72 2.0 WNW 35 57 19 31 1011.1 1011.8 0.0
25/10:05am 6.1 -2.7 1.6 73 1.9 NW 37 61 20 33 1011.3 1012.0 0.0
25/10:00am 6.4 -3.1 1.9 73 1.9 WNW 41 61 22 33 1011.2 1011.9 0.0
25/09:59am 6.5 -3.0 2.0 73 1.9 WNW 41 61 22 33 1011.2 1011.9 0.0
25/09:57am 6.7 -2.8 2.0 72 2.0 WNW 41 59 22 32 1011.2 1011.9 0.0
25/09:55am 6.6 -3.3 1.7 71 2.1 WNW 43 61 23 33 1011.1 1011.8 0.0
25/09:53am 6.6 -3.3 1.7 71 2.1 WNW 43 63 23 34 1011.0 1011.7 0.0
25/09:52am 6.5 -3.6 1.8 72 2.0 WNW 44 63 24 34 1011.0 1011.7 0.0
25/09:48am 6.5 -3.4 1.6 71 2.1 NW 43 63 23 34 1010.9 1011.6 0.0
25/09:30am 6.4 -2.7 1.7 72 2.0 WNW 39 61 21 33 1010.6 1011.2 0.0
25/09:11am 5.9 -4.0 1.4 73 1.9 WNW 43 61 23 33 1010.6 1011.2 0.0
25/09:10am 5.9 -4.1 1.2 72 1.9 NW 43 61 23 33 1010.6 1011.2 0.0
25/09:07am 6.1 -3.4 1.8 74 1.8 WNW 41 61 22 33 1010.7 1011.4 0.0
25/09:03am 6.0 -2.8 1.5 73 1.9 NW 37 61 20 33 1010.5 1011.1 0.0
25/09:00am 6.2 -2.1 1.9 74 1.8 NW 35 50 19 27 1010.6 1011.2 0.0
25/08:59am 6.3 -2.0 2.2 75 1.7 NW 35 50 19 27 1010.7 1011.4 0.0
25/08:56am 6.1 -2.2 2.0 75 1.7 NW 35 50 19 27 1010.7 1011.4 0.0
25/08:46am 5.7 -3.1 1.6 75 1.7 WNW 37 57 20 31 1010.5 1011.1 0.0
25/08:30am 5.8 -2.9 1.7 75 1.7 WNW 37 52 20 28 1010.5 1011.1 0.0
25/08:03am 5.4 -3.3 1.7 77 1.5 WNW 37 56 20 30 1010.3 1010.9 0.0
25/08:00am 5.4 -3.8 1.3 75 1.7 WNW 39 56 21 30 1010.1 1010.7 0.0
25/07:30am 5.0 -3.8 1.3 77 1.5 W 37 56 20 30 1010.0 1010.6 0.0
25/07:03am 4.8 -3.6 1.3 78 1.4 W 35 54 19 29 1009.7 1010.4 0.0
25/07:00am 4.8 -3.6 1.3 78 1.4 W 35 48 19 26 1009.6 1010.3 0.0
25/06:30am 4.8 -3.7 1.1 77 1.5 WNW 35 61 19 33 1009.2 1009.8 0.0
25/06:07am 4.7 -3.2 1.0 77 1.5 W 32 52 17 28 1009.0 1009.6 0.0
25/06:00am 4.4 -3.2 0.7 77 1.5 W 30 41 16 22 1009.0 1009.6 0.0
25/05:31am 4.3 -3.7 0.6 77 1.5 W 32 54 17 29 1008.7 1009.3 0.0
25/05:30am 4.3 -3.3 0.6 77 1.5 W 30 43 16 23 1008.8 1009.4 0.0
25/05:00am 4.0 -2.9 0.0 75 1.6 W 26 41 14 22 1008.9 1009.5 0.0
25/04:30am 4.1 -3.2 0.3 76 1.5 W 28 41 15 22 1009.0 1009.6 0.0
25/04:00am 4.3 -2.6 0.3 75 1.6 WSW 26 43 14 23 1008.9 1009.5 0.0
25/03:30am 4.6 -3.6 0.4 74 1.7 W 33 50 18 27 1008.9 1009.5 0.0
25/03:00am 4.7 -3.3 0.5 74 1.7 W 32 46 17 25 1009.0 1009.6 0.0
25/02:30am 4.9 -3.6 0.9 75 1.6 W 35 54 19 29 1009.3 1009.9 0.0
25/02:03am 5.3 -2.6 1.1 74 1.7 W 32 54 17 29 1009.0 1009.6 0.0
25/02:00am 5.3 -2.6 1.1 74 1.7 W 32 48 17 26 1009.1 1009.7 0.0
25/01:30am 5.6 -1.3 2.4 80 1.4 W 28 52 15 28 1009.0 1009.6 0.0
25/01:00am 5.2 -0.2 2.2 81 1.3 WNW 20 28 11 15 1009.3 1009.9 0.0
25/12:30am 5.0 -0.2 2.4 83 1.1 WNW 19 28 10 15 1009.6 1010.3 0.0
25/12:00am 4.3 0.2 2.0 85 1.0 W 13 17 7 9 1010.1 1010.7 0.0
 
Date/Time
EST
Temp
°C
App
Temp
°C
Dew
Point
°C
Rel
Hum
%
Delta-T
°C
Wind Press
QNH
hPa
Press
MSL
hPa
Rain since
9am
mm
Dir  Spd
km/h
Gust
km/h
Spd
kts
Gust
kts
24/11:30pm 4.5 0.3 1.7 82 1.2 SW 13 17 7 9 1010.5 1011.1 0.0
24/11:00pm 4.7 -0.9 1.4 79 1.4 W 20 32 11 17 1010.6 1011.2 0.0
24/10:30pm 4.7 -1.0 0.8 76 1.6 W 20 33 11 18 1010.7 1011.4 0.0
24/10:00pm 3.7 0.3 -0.9 72 1.8 NW 7 13 4 7 1011.0 1011.7 0.0
24/09:30pm 4.0 0.2 -1.0 70 1.9 W 9 13 5 7 1011.2 1011.9 0.0
24/09:00pm 4.0 -0.2 -1.2 69 2.0 NW 11 15 6 8 1011.2 1011.9 0.0
24/08:30pm 3.1 -1.5 -1.1 74 1.6 NNW 13 17 7 9 1011.4 1012.1 0.0
24/08:00pm 3.4 -0.9 -1.5 70 1.8 NNW 11 13 6 7 1011.2 1011.9 0.0
24/07:30pm 4.4 0.1 -1.4 66 2.2 NW 11 17 6 9 1011.6 1012.2 0.0
24/07:00pm 3.9 -1.5 -1.3 69 2.0 NW 17 20 9 11 1011.3 1012.0 0.0
24/06:30pm 4.2 -0.1 -1.6 66 2.2 NW 11 15 6 8 1011.1 1011.8 0.0
24/06:00pm 4.3 0.3 -1.9 64 2.3 W 9 15 5 8 1011.0 1011.7 0.0
24/05:30pm 5.2 -0.7 -1.9 60 2.7 WNW 19 26 10 14 1010.6 1011.2 0.0
24/05:00pm 6.0 -0.5 -2.3 55 3.2 WSW 22 37 12 20 1010.7 1011.4 0.0
24/04:30pm 6.7 -1.3 -2.2 53 3.4 W 30 39 16 21 1010.4 1011.0 0.0
24/04:00pm 7.1 1.0 -2.3 51 3.6 W 20 37 11 20 1009.8 1010.5 0.0
24/03:30pm 7.3 1.2 -2.2 51 3.7 WNW 20 30 11 16 1010.3 1010.9 0.0
24/03:00pm 7.5 0.8 -1.2 54 3.5 W 24 35 13 19 1010.7 1011.4 0.0
24/02:30pm 7.4 -1.3 -3.2 47 4.0 W 33 48 18 26 1011.0 1011.7 0.0
24/02:22pm 7.4 -0.8 -4.0 44 4.2 W 30 48 16 26 1011.0 1011.7 0.0
24/02:00pm 7.3 -0.3 -2.2 51 3.7 WNW 28 44 15 24 1011.2 1011.9 0.0
24/01:42pm 7.5 -0.8 -1.7 52 3.6 WSW 32 50 17 27 1011.1 1011.8 0.0
24/01:30pm 6.3 -1.0 -2.8 52 3.4 W 26 37 14 20 1011.6 1012.2 0.0
24/01:00pm 6.5 -1.6 -2.9 51 3.5 W 30 41 16 22 1012.1 1012.8 0.0
24/12:30pm 6.4 -1.8 -1.2 58 3.0 WSW 32 39 17 21 1012.6 1013.3 0.0
24/12:00pm 6.7 -0.9 -1.9 54 3.3 W 28 43 15 23 1013.0 1013.7 0.0
24/11:30am 6.1 -1.5 -2.0 56 3.1 WNW 28 39 15 21 1013.5 1014.2 0.0
24/11:00am 5.9 -1.5 -0.8 62 2.6 NW 28 37 15 20 1013.9 1014.6 0.0
24/10:30am 5.0 -1.7 -1.0 65 2.3 WNW 24 35 13 19 1014.1 1014.8 0.0
24/10:00am 4.3 -1.6 -0.9 69 2.0 NW 20 28 11 15 1014.4 1015.1 0.0
24/09:30am 3.1 -1.9 -0.9 75 1.5 W 15 20 8 11 1014.8 1015.5 0.0
24/09:00am 2.2 -2.1 -1.4 77 1.3 W 11 17 6 9 1014.4 1015.1 0.0
24/08:30am 1.1 -2.8 -1.6 82 1.0 W 9 15 5 8 1014.2 1014.9 0.0
24/08:00am 0.3 -4.8 -1.9 85 0.8 WNW 15 20 8 11 1013.8 1014.5 0.0
24/07:30am -0.2 -3.9 -2.6 84 0.8 NW 7 11 4 6 1013.7 1014.4 0.0
24/07:00am -0.1 -4.1 -2.5 84 0.8 SW 9 11 5 6 1013.4 1014.1 0.0
24/06:30am 0.2 -3.9 -2.7 81 1.0 SW 9 11 5 6 1013.7 1014.4 0.0
24/06:00am -0.4 -3.6 -3.3 81 1.0 NNW 4 9 2 5 1013.7 1014.4 0.0

Other Formats:

Comma delimited format used in spreadsheet applications
http://www.bom.gov.au/fwo/IDN60801/IDN60801.94746.axf

JavaScript Object Notation format (JSON) in row-major order
http://www.bom.gov.au/fwo/IDN60801/IDN60801.94746.json